WZZ2264 LHBP-LBWN
Flight info
| Callsign | WZZ2264 |
|---|---|
| Flight time | 1h 11m |
| Altitude | 35000 |
| Route | VETIK DCT BUDOP DCT VASIS DCT RASUB DCT BULEN L744 EXIGA |
| Aircraft | A321/M-SDE3FGHIRWY/LB1 |
Departure
| Time | 2026-05-08 17:46 |
|---|---|
| Airport | Budapest Liszt Ferenc International Airport (LHBP) |
Arrival
| Time | 2026-05-08 18:58 |
|---|---|
| Airport | Varna Airport (LBWN) |
| Time | Latitude | Longitude | Altitude | Speed | Heading |
|---|---|---|---|---|---|
| 2026-05-08 17:02 | 47.43451 | 19.26574 | 458 ft | 0 kts | 222° |
| 2026-05-08 17:31 | 47.43451 | 19.26575 | 457 ft | 1 kts | 222° |
| 2026-05-08 17:32 | 47.43466 | 19.26595 | 457 ft | 3 kts | 222° |
| 2026-05-08 17:32 | 47.43480 | 19.26624 | 457 ft | 4 kts | 269° |
| 2026-05-08 17:32 | 47.43473 | 19.26659 | 454 ft | 4 kts | 306° |
| 2026-05-08 17:32 | 47.43456 | 19.26689 | 455 ft | 4 kts | 314° |
| 2026-05-08 17:33 | 47.43448 | 19.26701 | 455 ft | 0 kts | 312° |
| 2026-05-08 17:38 | 47.43451 | 19.26696 | 456 ft | 2 kts | 312° |
| 2026-05-08 17:39 | 47.43465 | 19.26673 | 456 ft | 5 kts | 312° |
| 2026-05-08 17:39 | 47.43504 | 19.26611 | 457 ft | 11 kts | 312° |
| 2026-05-08 17:39 | 47.43567 | 19.26508 | 457 ft | 15 kts | 312° |
| 2026-05-08 17:39 | 47.43644 | 19.26385 | 456 ft | 17 kts | 313° |
| 2026-05-08 17:40 | 47.43678 | 19.26221 | 457 ft | 16 kts | 267° |
| 2026-05-08 17:40 | 47.43676 | 19.26101 | 457 ft | 9 kts | 279° |
| 2026-05-08 17:40 | 47.43721 | 19.25994 | 457 ft | 15 kts | 308° |
| 2026-05-08 17:40 | 47.43690 | 19.25852 | 457 ft | 19 kts | 225° |
| 2026-05-08 17:41 | 47.43613 | 19.25749 | 456 ft | 14 kts | 222° |
| 2026-05-08 17:41 | 47.43539 | 19.25648 | 457 ft | 15 kts | 222° |
| 2026-05-08 17:41 | 47.43461 | 19.25545 | 457 ft | 15 kts | 222° |
| 2026-05-08 17:41 | 47.43382 | 19.25439 | 457 ft | 16 kts | 222° |
| 2026-05-08 17:42 | 47.43295 | 19.25322 | 457 ft | 17 kts | 222° |
| 2026-05-08 17:42 | 47.43206 | 19.25204 | 457 ft | 17 kts | 222° |
| 2026-05-08 17:42 | 47.43153 | 19.25132 | 456 ft | 0 kts | 222° |
| 2026-05-08 17:44 | 47.43145 | 19.25122 | 457 ft | 6 kts | 222° |
| 2026-05-08 17:44 | 47.43093 | 19.25019 | 455 ft | 19 kts | 251° |
| 2026-05-08 17:44 | 47.43131 | 19.24890 | 457 ft | 0 kts | 312° |
| 2026-05-08 17:45 | 47.43135 | 19.24885 | 455 ft | 2 kts | 312° |
| 2026-05-08 17:45 | 47.43249 | 19.24699 | 455 ft | 59 kts | 312° |
| 2026-05-08 17:45 | 47.43680 | 19.24004 | 453 ft | 122 kts | 312° |
| 2026-05-08 17:46 | 47.44379 | 19.22879 | 462 ft | 172 kts | 312° |
| 2026-05-08 17:46 | 47.45173 | 19.21557 | 1034 ft | 173 kts | 311° |
| 2026-05-08 17:46 | 47.45990 | 19.20225 | 1713 ft | 177 kts | 313° |
| 2026-05-08 17:46 | 47.46866 | 19.18832 | 1985 ft | 195 kts | 312° |
| 2026-05-08 17:47 | 47.47818 | 19.17295 | 2256 ft | 210 kts | 312° |
| 2026-05-08 17:47 | 47.48869 | 19.15659 | 2426 ft | 231 kts | 317° |
| 2026-05-08 17:47 | 47.50173 | 19.14027 | 2552 ft | 258 kts | 322° |
| 2026-05-08 17:47 | 47.51118 | 19.12958 | 2990 ft | 259 kts | 322° |
| 2026-05-08 17:48 | 47.53038 | 19.10775 | 3952 ft | 262 kts | 322° |
| 2026-05-08 17:48 | 47.54464 | 19.09083 | 4681 ft | 263 kts | 321° |
| 2026-05-08 17:48 | 47.55883 | 19.07358 | 5108 ft | 265 kts | 321° |
| 2026-05-08 17:48 | 47.57314 | 19.05611 | 5794 ft | 267 kts | 321° |
| 2026-05-08 17:49 | 47.58745 | 19.03853 | 6510 ft | 268 kts | 321° |
| 2026-05-08 17:49 | 47.60183 | 19.02074 | 7155 ft | 271 kts | 320° |
| 2026-05-08 17:49 | 47.61639 | 19.00262 | 7779 ft | 275 kts | 320° |
| 2026-05-08 17:49 | 47.63201 | 18.98620 | 8382 ft | 279 kts | 336° |
| 2026-05-08 17:50 | 47.65096 | 18.98020 | 9020 ft | 283 kts | 360° |
| 2026-05-08 17:50 | 47.67030 | 18.98612 | 9649 ft | 288 kts | 23° |
| 2026-05-08 17:50 | 47.68672 | 19.00292 | 10216 ft | 294 kts | 41° |
| 2026-05-08 17:50 | 47.70207 | 19.02456 | 10426 ft | 314 kts | 41° |
| 2026-05-08 17:51 | 47.71844 | 19.04746 | 10565 ft | 333 kts | 41° |
| 2026-05-08 17:51 | 47.73587 | 19.07168 | 10687 ft | 352 kts | 41° |
| 2026-05-08 17:51 | 47.75416 | 19.09704 | 10899 ft | 366 kts | 41° |
| 2026-05-08 17:51 | 47.77275 | 19.12348 | 11370 ft | 373 kts | 45° |
| 2026-05-08 17:52 | 47.78840 | 19.15451 | 11901 ft | 379 kts | 58° |
| 2026-05-08 17:52 | 47.79962 | 19.19035 | 12433 ft | 386 kts | 70° |
| 2026-05-08 17:52 | 47.80771 | 19.27008 | 13504 ft | 396 kts | 85° |
| 2026-05-08 17:53 | 47.80958 | 19.31066 | 14019 ft | 400 kts | 85° |
| 2026-05-08 17:53 | 47.81150 | 19.35205 | 14518 ft | 403 kts | 85° |
| 2026-05-08 17:53 | 47.81336 | 19.39389 | 15032 ft | 406 kts | 87° |
| 2026-05-08 17:53 | 47.81167 | 19.43594 | 15527 ft | 410 kts | 99° |
| 2026-05-08 17:54 | 47.80446 | 19.47715 | 16007 ft | 413 kts | 111° |
| 2026-05-08 17:54 | 47.79192 | 19.51568 | 16521 ft | 416 kts | 123° |
| 2026-05-08 17:54 | 47.77450 | 19.55011 | 17013 ft | 418 kts | 133° |
| 2026-05-08 17:54 | 47.75488 | 19.58214 | 17514 ft | 421 kts | 134° |
| 2026-05-08 17:55 | 47.73508 | 19.61442 | 18018 ft | 424 kts | 134° |
| 2026-05-08 17:55 | 47.71516 | 19.64684 | 18483 ft | 427 kts | 134° |
| 2026-05-08 17:55 | 47.69500 | 19.67965 | 18917 ft | 430 kts | 134° |
| 2026-05-08 17:55 | 47.67479 | 19.71257 | 19367 ft | 432 kts | 134° |
| 2026-05-08 17:56 | 47.65482 | 19.74512 | 19806 ft | 434 kts | 134° |
| 2026-05-08 17:56 | 47.63447 | 19.77834 | 20220 ft | 436 kts | 134° |
| 2026-05-08 17:56 | 47.61401 | 19.81171 | 20647 ft | 439 kts | 134° |
| 2026-05-08 17:56 | 47.59342 | 19.84520 | 21050 ft | 441 kts | 135° |
| 2026-05-08 17:57 | 47.57268 | 19.87882 | 21456 ft | 443 kts | 135° |
| 2026-05-08 17:57 | 47.55179 | 19.91256 | 21841 ft | 446 kts | 135° |
| 2026-05-08 17:57 | 47.53075 | 19.94653 | 22161 ft | 449 kts | 135° |
| 2026-05-08 17:57 | 47.50958 | 19.98069 | 22510 ft | 452 kts | 135° |
| 2026-05-08 17:58 | 47.48821 | 20.01511 | 22853 ft | 455 kts | 136° |
| 2026-05-08 17:58 | 47.46675 | 20.04967 | 23192 ft | 458 kts | 136° |
| 2026-05-08 17:58 | 47.44512 | 20.08448 | 23530 ft | 461 kts | 136° |
| 2026-05-08 17:58 | 47.42332 | 20.11949 | 23844 ft | 463 kts | 136° |
| 2026-05-08 17:59 | 47.40140 | 20.15463 | 24146 ft | 466 kts | 136° |
| 2026-05-08 17:59 | 47.37942 | 20.18985 | 24447 ft | 468 kts | 137° |
| 2026-05-08 17:59 | 47.35737 | 20.22522 | 24750 ft | 470 kts | 135° |
| 2026-05-08 17:59 | 47.33687 | 20.26328 | 25036 ft | 475 kts | 131° |
| 2026-05-08 18:00 | 47.31689 | 20.30214 | 25333 ft | 477 kts | 131° |
| 2026-05-08 18:00 | 47.27653 | 20.38036 | 25849 ft | 482 kts | 132° |
| 2026-05-08 18:00 | 47.25617 | 20.41969 | 26122 ft | 484 kts | 132° |
| 2026-05-08 18:01 | 47.23570 | 20.45915 | 26391 ft | 486 kts | 132° |
| 2026-05-08 18:01 | 47.21518 | 20.49866 | 26636 ft | 488 kts | 132° |
| 2026-05-08 18:01 | 47.19451 | 20.53842 | 26876 ft | 490 kts | 132° |
| 2026-05-08 18:01 | 47.17379 | 20.57826 | 27146 ft | 492 kts | 133° |
| 2026-05-08 18:02 | 47.15289 | 20.61838 | 27416 ft | 494 kts | 133° |
| 2026-05-08 18:02 | 47.13905 | 20.64491 | 27582 ft | 496 kts | 133° |
| 2026-05-08 18:02 | 47.11118 | 20.69825 | 27991 ft | 497 kts | 133° |
| 2026-05-08 18:02 | 47.09017 | 20.73844 | 28363 ft | 496 kts | 133° |
| 2026-05-08 18:03 | 47.06918 | 20.77852 | 28736 ft | 495 kts | 133° |
| 2026-05-08 18:03 | 47.04818 | 20.81854 | 29108 ft | 495 kts | 134° |
| 2026-05-08 18:03 | 47.02715 | 20.85849 | 29481 ft | 494 kts | 134° |
| 2026-05-08 18:03 | 47.00615 | 20.89836 | 29849 ft | 494 kts | 134° |
| 2026-05-08 18:04 | 46.98516 | 20.93817 | 30170 ft | 493 kts | 134° |
| 2026-05-08 18:04 | 46.96420 | 20.97795 | 30476 ft | 493 kts | 134° |
| 2026-05-08 18:04 | 46.94331 | 21.01763 | 30776 ft | 492 kts | 134° |
| 2026-05-08 18:04 | 46.92242 | 21.05716 | 31090 ft | 491 kts | 134° |
| 2026-05-08 18:05 | 46.90119 | 21.09713 | 31396 ft | 490 kts | 134° |
| 2026-05-08 18:05 | 46.88028 | 21.13642 | 31695 ft | 490 kts | 134° |
| 2026-05-08 18:05 | 46.85937 | 21.17568 | 31996 ft | 489 kts | 134° |
| 2026-05-08 18:05 | 46.83848 | 21.21485 | 32296 ft | 488 kts | 134° |
| 2026-05-08 18:06 | 46.81791 | 21.25337 | 32545 ft | 487 kts | 134° |
| 2026-05-08 18:06 | 46.79709 | 21.29235 | 32852 ft | 486 kts | 134° |
| 2026-05-08 18:06 | 46.77632 | 21.33123 | 33136 ft | 486 kts | 134° |
| 2026-05-08 18:06 | 46.75558 | 21.37002 | 33422 ft | 485 kts | 134° |
| 2026-05-08 18:07 | 46.73480 | 21.40880 | 33725 ft | 484 kts | 134° |
| 2026-05-08 18:07 | 46.71402 | 21.44740 | 34024 ft | 483 kts | 134° |
| 2026-05-08 18:07 | 46.69310 | 21.48544 | 34260 ft | 479 kts | 137° |
| 2026-05-08 18:07 | 46.66967 | 21.51943 | 34491 ft | 471 kts | 145° |
| 2026-05-08 18:08 | 46.64483 | 21.55061 | 34690 ft | 471 kts | 145° |
| 2026-05-08 18:08 | 46.62004 | 21.58171 | 34906 ft | 470 kts | 145° |
| 2026-05-08 18:08 | 46.59651 | 21.61500 | 35043 ft | 475 kts | 140° |
| 2026-05-08 18:08 | 46.57367 | 21.64987 | 35070 ft | 476 kts | 139° |
| 2026-05-08 18:09 | 46.52859 | 21.72065 | 35070 ft | 477 kts | 138° |
| 2026-05-08 18:09 | 46.48355 | 21.79150 | 35073 ft | 477 kts | 138° |
| 2026-05-08 18:10 | 46.43830 | 21.86182 | 35074 ft | 476 kts | 139° |
| 2026-05-08 18:10 | 46.39320 | 21.93124 | 35072 ft | 475 kts | 139° |
| 2026-05-08 18:11 | 46.34776 | 22.00099 | 35074 ft | 476 kts | 139° |
| 2026-05-08 18:11 | 46.30229 | 22.07073 | 35078 ft | 476 kts | 139° |
| 2026-05-08 18:12 | 46.25689 | 22.14027 | 35065 ft | 475 kts | 139° |
| 2026-05-08 18:12 | 46.21171 | 22.20932 | 35076 ft | 475 kts | 139° |
| 2026-05-08 18:13 | 46.16630 | 22.27855 | 35081 ft | 474 kts | 139° |
| 2026-05-08 18:13 | 46.12104 | 22.34742 | 35083 ft | 473 kts | 139° |
| 2026-05-08 18:14 | 46.07568 | 22.41614 | 35069 ft | 473 kts | 139° |
| 2026-05-08 18:14 | 46.03030 | 22.48476 | 35078 ft | 473 kts | 139° |
| 2026-05-08 18:15 | 45.98498 | 22.55322 | 35084 ft | 472 kts | 139° |
| 2026-05-08 18:15 | 45.93964 | 22.62143 | 35082 ft | 472 kts | 139° |
| 2026-05-08 18:16 | 45.89429 | 22.68949 | 35061 ft | 471 kts | 139° |
| 2026-05-08 18:16 | 45.84889 | 22.75742 | 35067 ft | 471 kts | 139° |
| 2026-05-08 18:17 | 45.80346 | 22.82519 | 35085 ft | 471 kts | 139° |
| 2026-05-08 18:17 | 45.75804 | 22.89292 | 35084 ft | 471 kts | 139° |
| 2026-05-08 18:18 | 45.71261 | 22.96049 | 35067 ft | 471 kts | 139° |
| 2026-05-08 18:18 | 45.66729 | 23.02757 | 35066 ft | 471 kts | 139° |
| 2026-05-08 18:19 | 45.62170 | 23.09497 | 35066 ft | 471 kts | 139° |
| 2026-05-08 18:19 | 45.57604 | 23.16230 | 35083 ft | 472 kts | 139° |
| 2026-05-08 18:20 | 45.53042 | 23.22949 | 35078 ft | 471 kts | 139° |
| 2026-05-08 18:20 | 45.48476 | 23.29650 | 35083 ft | 471 kts | 139° |
| 2026-05-08 18:21 | 45.43899 | 23.36342 | 35088 ft | 471 kts | 139° |
| 2026-05-08 18:21 | 45.39321 | 23.43024 | 35094 ft | 471 kts | 139° |
| 2026-05-08 18:22 | 45.34741 | 23.49702 | 35095 ft | 471 kts | 139° |
| 2026-05-08 18:22 | 45.30167 | 23.56360 | 35083 ft | 471 kts | 139° |
| 2026-05-08 18:23 | 45.26361 | 23.61877 | 35086 ft | 470 kts | 139° |
| 2026-05-08 18:23 | 45.21026 | 23.69585 | 35092 ft | 470 kts | 139° |
| 2026-05-08 18:24 | 45.17184 | 23.75121 | 35077 ft | 470 kts | 139° |
| 2026-05-08 18:24 | 45.12626 | 23.81680 | 35084 ft | 470 kts | 139° |
| 2026-05-08 18:25 | 45.08032 | 23.88285 | 35088 ft | 470 kts | 139° |
| 2026-05-08 18:25 | 45.03435 | 23.94870 | 35087 ft | 470 kts | 139° |
| 2026-05-08 18:26 | 44.98833 | 24.01444 | 35066 ft | 470 kts | 139° |
| 2026-05-08 18:26 | 44.94236 | 24.07997 | 35074 ft | 470 kts | 139° |
| 2026-05-08 18:27 | 44.90401 | 24.13443 | 35077 ft | 470 kts | 139° |
| 2026-05-08 18:27 | 44.85016 | 24.21083 | 35082 ft | 470 kts | 139° |
| 2026-05-08 18:28 | 44.80433 | 24.27581 | 35076 ft | 470 kts | 139° |
| 2026-05-08 18:28 | 44.75813 | 24.34103 | 35076 ft | 471 kts | 139° |
| 2026-05-08 18:29 | 44.71185 | 24.40628 | 35078 ft | 471 kts | 139° |
| 2026-05-08 18:29 | 44.66549 | 24.47144 | 35068 ft | 471 kts | 139° |
| 2026-05-08 18:30 | 44.61901 | 24.53657 | 35062 ft | 472 kts | 139° |
| 2026-05-08 18:30 | 44.57236 | 24.60175 | 35072 ft | 473 kts | 139° |
| 2026-05-08 18:31 | 44.52600 | 24.66638 | 35086 ft | 473 kts | 139° |
| 2026-05-08 18:31 | 44.47934 | 24.73141 | 35085 ft | 473 kts | 139° |
| 2026-05-08 18:32 | 44.43256 | 24.79644 | 35054 ft | 474 kts | 139° |
| 2026-05-08 18:32 | 44.40911 | 24.82890 | 34809 ft | 474 kts | 139° |
| 2026-05-08 18:32 | 44.38565 | 24.86130 | 34551 ft | 474 kts | 139° |
| 2026-05-08 18:33 | 44.36222 | 24.89362 | 34317 ft | 474 kts | 139° |
| 2026-05-08 18:33 | 44.33877 | 24.92595 | 34078 ft | 474 kts | 139° |
| 2026-05-08 18:33 | 44.31532 | 24.95828 | 33810 ft | 474 kts | 139° |
| 2026-05-08 18:33 | 44.29185 | 24.99057 | 33545 ft | 474 kts | 139° |
| 2026-05-08 18:34 | 44.26837 | 25.02291 | 33270 ft | 475 kts | 139° |
| 2026-05-08 18:34 | 44.24482 | 25.05532 | 33002 ft | 476 kts | 139° |
| 2026-05-08 18:34 | 44.22124 | 25.08776 | 32736 ft | 477 kts | 139° |
| 2026-05-08 18:34 | 44.19760 | 25.12027 | 32475 ft | 477 kts | 139° |
| 2026-05-08 18:35 | 44.17392 | 25.15272 | 32215 ft | 478 kts | 139° |
| 2026-05-08 18:35 | 44.15014 | 25.18518 | 31953 ft | 478 kts | 139° |
| 2026-05-08 18:35 | 44.12634 | 25.21763 | 31691 ft | 479 kts | 139° |
| 2026-05-08 18:35 | 44.10253 | 25.25008 | 31450 ft | 480 kts | 138° |
| 2026-05-08 18:36 | 44.07867 | 25.28259 | 31187 ft | 481 kts | 139° |
| 2026-05-08 18:36 | 44.05474 | 25.31520 | 31020 ft | 481 kts | 138° |
| 2026-05-08 18:36 | 44.00687 | 25.38027 | 30764 ft | 482 kts | 139° |
| 2026-05-08 18:37 | 43.98296 | 25.41298 | 30517 ft | 483 kts | 136° |
| 2026-05-08 18:37 | 43.96134 | 25.44884 | 30275 ft | 486 kts | 130° |
| 2026-05-08 18:37 | 43.94037 | 25.48569 | 30038 ft | 486 kts | 130° |
| 2026-05-08 18:37 | 43.91937 | 25.52246 | 29747 ft | 487 kts | 130° |
| 2026-05-08 18:38 | 43.89825 | 25.55936 | 29460 ft | 488 kts | 130° |
| 2026-05-08 18:38 | 43.87714 | 25.59615 | 29187 ft | 488 kts | 130° |
| 2026-05-08 18:38 | 43.85626 | 25.63254 | 28915 ft | 488 kts | 130° |
| 2026-05-08 18:38 | 43.83482 | 25.66986 | 28641 ft | 488 kts | 130° |
| 2026-05-08 18:39 | 43.81371 | 25.70654 | 28361 ft | 486 kts | 130° |
| 2026-05-08 18:39 | 43.79292 | 25.74254 | 28109 ft | 484 kts | 130° |
| 2026-05-08 18:39 | 43.77194 | 25.77896 | 27598 ft | 482 kts | 128° |
| 2026-05-08 18:39 | 43.75359 | 25.81757 | 27060 ft | 479 kts | 120° |
| 2026-05-08 18:40 | 43.73952 | 25.85916 | 26532 ft | 476 kts | 111° |
| 2026-05-08 18:40 | 43.72865 | 25.90222 | 26013 ft | 473 kts | 110° |
| 2026-05-08 18:40 | 43.71795 | 25.94504 | 25500 ft | 469 kts | 110° |
| 2026-05-08 18:40 | 43.70726 | 25.98746 | 25001 ft | 465 kts | 110° |
| 2026-05-08 18:41 | 43.69661 | 26.02947 | 24511 ft | 462 kts | 110° |
| 2026-05-08 18:41 | 43.68597 | 26.07123 | 24027 ft | 458 kts | 110° |
| 2026-05-08 18:41 | 43.67543 | 26.11257 | 23534 ft | 455 kts | 110° |
| 2026-05-08 18:41 | 43.66498 | 26.15367 | 22968 ft | 451 kts | 110° |
| 2026-05-08 18:42 | 43.65466 | 26.19435 | 22406 ft | 447 kts | 110° |
| 2026-05-08 18:42 | 43.64442 | 26.23463 | 21864 ft | 443 kts | 110° |
| 2026-05-08 18:42 | 43.63426 | 26.27453 | 21350 ft | 438 kts | 110° |
| 2026-05-08 18:42 | 43.62415 | 26.31415 | 20763 ft | 436 kts | 110° |
| 2026-05-08 18:43 | 43.61411 | 26.35343 | 20289 ft | 432 kts | 110° |
| 2026-05-08 18:43 | 43.60411 | 26.39238 | 19724 ft | 429 kts | 110° |
| 2026-05-08 18:43 | 43.59417 | 26.43105 | 19180 ft | 427 kts | 110° |
| 2026-05-08 18:43 | 43.58424 | 26.46962 | 18637 ft | 425 kts | 110° |
| 2026-05-08 18:44 | 43.57435 | 26.50792 | 18077 ft | 424 kts | 110° |
| 2026-05-08 18:44 | 43.56462 | 26.54561 | 17480 ft | 422 kts | 110° |
| 2026-05-08 18:44 | 43.55464 | 26.58418 | 16857 ft | 421 kts | 110° |
| 2026-05-08 18:44 | 43.54495 | 26.62158 | 16295 ft | 419 kts | 110° |
| 2026-05-08 18:45 | 43.53515 | 26.65939 | 15726 ft | 417 kts | 110° |
| 2026-05-08 18:45 | 43.52541 | 26.69697 | 15160 ft | 415 kts | 110° |
| 2026-05-08 18:45 | 43.51571 | 26.73434 | 14605 ft | 413 kts | 110° |
| 2026-05-08 18:45 | 43.50605 | 26.77143 | 14058 ft | 410 kts | 110° |
| 2026-05-08 18:46 | 43.49639 | 26.80831 | 13479 ft | 407 kts | 110° |
| 2026-05-08 18:46 | 43.48683 | 26.84487 | 12879 ft | 404 kts | 110° |
| 2026-05-08 18:46 | 43.47834 | 26.88157 | 12286 ft | 401 kts | 103° |
| 2026-05-08 18:46 | 43.47472 | 26.91936 | 11715 ft | 397 kts | 92° |
| 2026-05-08 18:47 | 43.47353 | 26.95717 | 11150 ft | 393 kts | 92° |
| 2026-05-08 18:47 | 43.47225 | 26.99459 | 10586 ft | 389 kts | 93° |
| 2026-05-08 18:47 | 43.47091 | 27.03160 | 10154 ft | 383 kts | 93° |
| 2026-05-08 18:47 | 43.46960 | 27.06752 | 10005 ft | 367 kts | 93° |
| 2026-05-08 18:48 | 43.46835 | 27.10164 | 10047 ft | 347 kts | 94° |
| 2026-05-08 18:48 | 43.46714 | 27.13418 | 9878 ft | 335 kts | 94° |
| 2026-05-08 18:48 | 43.46598 | 27.16592 | 9561 ft | 328 kts | 94° |
| 2026-05-08 18:48 | 43.46484 | 27.19644 | 9377 ft | 318 kts | 94° |
| 2026-05-08 18:49 | 43.46372 | 27.22633 | 9251 ft | 307 kts | 94° |
| 2026-05-08 18:49 | 43.46264 | 27.25526 | 9120 ft | 298 kts | 94° |
| 2026-05-08 18:49 | 43.46157 | 27.28338 | 8988 ft | 292 kts | 94° |
| 2026-05-08 18:49 | 43.45991 | 27.31115 | 8816 ft | 290 kts | 103° |
| 2026-05-08 18:50 | 43.45245 | 27.33637 | 8610 ft | 285 kts | 126° |
| 2026-05-08 18:50 | 43.43868 | 27.35571 | 8207 ft | 284 kts | 148° |
| 2026-05-08 18:50 | 43.42122 | 27.36841 | 7772 ft | 285 kts | 155° |
| 2026-05-08 18:50 | 43.40341 | 27.38057 | 7328 ft | 285 kts | 155° |
| 2026-05-08 18:51 | 43.38602 | 27.39248 | 6899 ft | 272 kts | 155° |
| 2026-05-08 18:51 | 43.36946 | 27.40388 | 6581 ft | 264 kts | 154° |
| 2026-05-08 18:51 | 43.35306 | 27.41519 | 6278 ft | 262 kts | 154° |
| 2026-05-08 18:51 | 43.33672 | 27.42645 | 5890 ft | 264 kts | 154° |
| 2026-05-08 18:52 | 43.32026 | 27.43777 | 5491 ft | 266 kts | 154° |
| 2026-05-08 18:52 | 43.30360 | 27.44923 | 5096 ft | 268 kts | 154° |
| 2026-05-08 18:52 | 43.28689 | 27.46077 | 4693 ft | 269 kts | 153° |
| 2026-05-08 18:52 | 43.27197 | 27.47620 | 4287 ft | 271 kts | 132° |
| 2026-05-08 18:53 | 43.26216 | 27.49806 | 4041 ft | 267 kts | 111° |
| 2026-05-08 18:53 | 43.25841 | 27.52185 | 4032 ft | 250 kts | 97° |
| 2026-05-08 18:53 | 43.25650 | 27.54433 | 4068 ft | 225 kts | 97° |
| 2026-05-08 18:53 | 43.25476 | 27.56473 | 4058 ft | 205 kts | 97° |
| 2026-05-08 18:54 | 43.25313 | 27.58355 | 4050 ft | 196 kts | 97° |
| 2026-05-08 18:54 | 43.25151 | 27.60190 | 3852 ft | 192 kts | 98° |
| 2026-05-08 18:54 | 43.24978 | 27.62028 | 3464 ft | 193 kts | 98° |
| 2026-05-08 18:54 | 43.24836 | 27.63783 | 3356 ft | 176 kts | 97° |
| 2026-05-08 18:55 | 43.24568 | 27.66910 | 2728 ft | 155 kts | 97° |
| 2026-05-08 18:55 | 43.24442 | 27.68341 | 2314 ft | 151 kts | 97° |
| 2026-05-08 18:55 | 43.24312 | 27.69830 | 1766 ft | 159 kts | 96° |
| 2026-05-08 18:56 | 43.24179 | 27.71358 | 1589 ft | 164 kts | 96° |
| 2026-05-08 18:56 | 43.24042 | 27.72919 | 1380 ft | 165 kts | 96° |
| 2026-05-08 18:56 | 43.23908 | 27.74454 | 1156 ft | 160 kts | 97° |
| 2026-05-08 18:56 | 43.23775 | 27.75964 | 959 ft | 158 kts | 97° |
| 2026-05-08 18:57 | 43.23643 | 27.77458 | 745 ft | 158 kts | 97° |
| 2026-05-08 18:57 | 43.23554 | 27.78445 | 627 ft | 157 kts | 97° |
| 2026-05-08 18:57 | 43.23380 | 27.80432 | 331 ft | 156 kts | 97° |
| 2026-05-08 18:57 | 43.23260 | 27.81845 | 223 ft | 134 kts | 97° |
| 2026-05-08 18:58 | 43.23169 | 27.82844 | 223 ft | 76 kts | 96° |
| 2026-05-08 18:58 | 43.23141 | 27.83229 | 222 ft | 20 kts | 81° |
| 2026-05-08 18:58 | 43.23237 | 27.83296 | 222 ft | 4 kts | 7° |
| 2026-05-08 18:58 | 43.23248 | 27.83298 | 222 ft | 2 kts | 7° |
| 2026-05-08 18:59 | 43.23272 | 27.83302 | 222 ft | 0 kts | 7° |
| 2026-05-08 18:59 | 43.23273 | 27.83302 | 222 ft | 0 kts | 7° |
| 2026-05-08 18:59 | 43.23279 | 27.83303 | 222 ft | 1 kts | 7° |
| 2026-05-08 19:00 | 43.23287 | 27.83304 | 222 ft | 2 kts | 7° |
| 2026-05-08 19:00 | 43.23336 | 27.83313 | 222 ft | 11 kts | 7° |
| 2026-05-08 19:00 | 43.23374 | 27.83312 | 222 ft | 6 kts | 335° |
| 2026-05-08 19:00 | 43.23397 | 27.83229 | 222 ft | 10 kts | 277° |
| 2026-05-08 19:01 | 43.23405 | 27.83114 | 222 ft | 15 kts | 277° |
| 2026-05-08 19:01 | 43.23416 | 27.83002 | 222 ft | 8 kts | 278° |
| 2026-05-08 19:01 | 43.23424 | 27.82918 | 222 ft | 9 kts | 277° |
| 2026-05-08 19:01 | 43.23433 | 27.82824 | 222 ft | 11 kts | 277° |
| 2026-05-08 19:02 | 43.23442 | 27.82719 | 223 ft | 12 kts | 277° |
| 2026-05-08 19:02 | 43.23453 | 27.82603 | 222 ft | 13 kts | 277° |
| 2026-05-08 19:02 | 43.23466 | 27.82504 | 222 ft | 8 kts | 306° |
| 2026-05-08 19:02 | 43.23510 | 27.82494 | 222 ft | 2 kts | 6° |
| 2026-05-08 19:03 | 43.23517 | 27.82495 | 222 ft | 1 kts | 6° |
| 2026-05-08 19:03 | 43.23520 | 27.82496 | 222 ft | 0 kts | 6° |